Time;durP1;ratioP1;P1;durP2;ratioP2;P2;SDS_P1;SDS_P2;PMS_P1;PMS_P2;Temp;Humidity;BMP_temperature;BMP_pressure;BME280_temperature;BME280_humidity;BME280_pressure;Samples;Min_cycle;Max_cycle;Signal;HPM_P1;HPM_P2
2023/06/20 00:01:08;;;;;;;11.05;8.52;;;17.40;99.90;;;;;;5064218;28;20556;-80
2023/06/20 00:03:34;;;;;;;10.73;7.88;;;17.40;99.90;;;;;;5066662;28;20118;-82
2023/06/20 00:05:59;;;;;;;10.18;7.80;;;17.30;99.90;;;;;;5064338;28;20046;-81
2023/06/20 00:08:25;;;;;;;9.77;7.32;;;17.50;99.90;;;;;;5052971;28;20045;-81
2023/06/20 00:10:50;;;;;;;9.40;7.70;;;17.20;99.90;;;;;;5069026;28;20040;-82
2023/06/20 00:13:17;;;;;;;8.65;7.68;;;17.30;99.90;;;;;;5068043;28;20480;-81
2023/06/20 00:15:44;;;;;;;11.40;7.93;;;17.30;99.90;;;;;;5067477;28;20052;-82
2023/06/20 00:18:09;;;;;;;10.18;7.10;;;17.00;99.90;;;;;;5069508;28;20045;-82
2023/06/20 00:20:38;;;;;;;8.52;7.45;;;17.40;99.90;;;;;;5067419;28;20523;-84
2023/06/20 00:23:03;;;;;;;9.98;7.75;;;17.40;99.90;;;;;;5070135;28;20037;-81
2023/06/20 00:25:29;;;;;;;9.48;7.50;;;17.30;99.90;;;;;;5066626;28;20048;-81
2023/06/20 00:27:55;;;;;;;10.90;7.35;;;17.30;99.90;;;;;;5050026;28;20060;-82
2023/06/20 00:30:21;;;;;;;11.10;7.30;;;17.40;99.90;;;;;;5042367;28;20043;-82
2023/06/20 00:32:46;;;;;;;11.15;7.68;;;17.40;99.90;;;;;;5059737;28;20037;-82
2023/06/20 00:35:12;;;;;;;11.52;8.23;;;17.30;99.90;;;;;;5050726;28;20109;-82
2023/06/20 00:37:38;;;;;;;9.73;7.40;;;17.30;99.90;;;;;;5066373;28;20458;-82
2023/06/20 00:40:07;;;;;;;9.90;8.02;;;17.40;99.90;;;;;;5047058;28;20063;-82
2023/06/20 00:42:34;;;;;;;14.18;9.05;;;17.40;99.90;;;;;;5067265;28;20045;-82
2023/06/20 00:45:00;;;;;;;11.85;8.45;;;17.50;99.90;;;;;;5068092;28;20117;-82
2023/06/20 00:47:29;;;;;;;10.00;7.65;;;17.30;99.90;;;;;;5066581;28;20040;-83
2023/06/20 00:49:55;;;;;;;9.95;8.95;;;17.30;99.90;;;;;;5051174;28;20043;-82
2023/06/20 00:52:22;;;;;;;10.45;8.50;;;17.30;99.90;;;;;;5067464;28;20447;-82
2023/06/20 00:54:49;;;;;;;10.75;8.10;;;17.30;99.90;;;;;;5050874;28;20048;-82
2023/06/20 00:57:17;;;;;;;10.20;8.15;;;17.30;99.90;;;;;;5068311;28;20555;-82
2023/06/20 00:59:44;;;;;;;9.45;8.00;;;17.30;99.90;;;;;;5065159;28;20039;-82
2023/06/20 01:02:10;;;;;;;10.77;8.18;;;17.30;99.90;;;;;;5065958;28;20051;-82
2023/06/20 01:04:41;;;;;;;9.30;7.75;;;17.30;99.90;;;;;;5063595;28;20067;-82
2023/06/20 01:07:27;;;;;;;9.15;8.23;;;17.30;99.90;;;;;;5048492;28;20074;-83
2023/06/20 01:10:17;;;;;;;8.32;7.43;;;17.50;99.90;;;;;;5050752;28;20045;-83
2023/06/20 01:12:58;;;;;;;9.65;7.97;;;17.20;99.90;;;;;;5068472;28;20056;-82
2023/06/20 01:15:32;;;;;;;10.25;8.35;;;17.20;99.90;;;;;;5054621;28;20037;-82
2023/06/20 01:18:04;;;;;;;10.50;8.50;;;17.20;99.90;;;;;;5069105;28;20051;-82
2023/06/20 01:20:43;;;;;;;10.75;8.52;;;17.20;99.90;;;;;;5065885;28;20044;-82
2023/06/20 01:23:09;;;;;;;9.27;8.32;;;17.20;99.90;;;;;;5050498;28;20036;-81
2023/06/20 01:26:04;;;;;;;8.80;7.93;;;17.20;99.90;;;;;;5051426;28;20059;-81
2023/06/20 01:28:50;;;;;;;11.85;9.15;;;17.20;99.90;;;;;;5066612;28;20044;-82
2023/06/20 01:31:21;;;;;;;11.27;9.07;;;17.20;99.90;;;;;;5069073;28;20113;-82
2023/06/20 01:33:56;;;;;;;11.60;8.43;;;17.10;99.90;;;;;;5064072;28;20059;-82
2023/06/20 01:36:24;;;;;;;10.13;9.00;;;17.10;99.90;;;;;;5065930;28;20469;-82
2023/06/20 01:38:58;;;;;;;12.25;9.10;;;17.20;99.90;;;;;;5050667;28;20040;-81
2023/06/20 01:41:26;;;;;;;10.73;8.43;;;17.20;99.90;;;;;;5066049;28;20033;-81
2023/06/20 01:43:55;;;;;;;14.95;10.10;;;17.20;99.90;;;;;;5068242;28;20416;-82
2023/06/20 01:46:22;;;;;;;10.90;8.68;;;17.10;99.90;;;;;;5049035;28;20037;-83
2023/06/20 01:48:50;;;;;;;13.77;9.90;;;17.10;99.90;;;;;;5036409;28;20060;-82
2023/06/20 01:51:17;;;;;;;12.15;9.55;;;17.20;99.90;;;;;;5047494;28;20055;-82
2023/06/20 01:53:44;;;;;;;10.90;9.48;;;17.10;99.90;;;;;;5067143;28;20041;-81
2023/06/20 01:56:11;;;;;;;12.07;9.82;;;17.10;99.90;;;;;;5065864;28;20044;-82
2023/06/20 01:58:40;;;;;;;9.50;8.60;;;17.20;99.90;;;;;;5067464;28;20041;-82
2023/06/20 02:01:07;;;;;;;10.93;9.45;;;17.20;99.90;;;;;;5062515;28;20063;-81
2023/06/20 02:03:34;;;;;;;11.02;9.32;;;17.20;99.90;;;;;;5048040;28;20055;-81
2023/06/20 02:06:01;;;;;;;11.38;10.13;;;17.20;99.90;;;;;;5065231;28;20519;-81
2023/06/20 02:08:29;;;;;;;10.85;9.23;;;17.10;99.90;;;;;;5049996;28;20045;-81
2023/06/20 02:10:56;;;;;;;12.85;9.85;;;17.20;99.90;;;;;;5046485;28;20523;-82
2023/06/20 02:13:23;;;;;;;12.05;10.27;;;17.10;99.90;;;;;;5057470;28;20068;-82
2023/06/20 02:15:52;;;;;;;12.95;11.15;;;17.10;99.90;;;;;;5065009;28;20138;-82
2023/06/20 02:18:19;;;;;;;13.55;10.30;;;17.20;99.90;;;;;;5068420;28;20447;-82
2023/06/20 02:20:49;;;;;;;12.00;10.43;;;16.90;99.90;;;;;;5068078;28;20454;-82
2023/06/20 02:23:21;;;;;;;14.63;10.68;;;17.10;99.90;;;;;;5049111;28;20044;-82
2023/06/20 02:25:47;;;;;;;12.88;10.48;;;17.10;99.90;;;;;;5058590;28;20049;-81
2023/06/20 02:28:15;;;;;;;12.48;11.10;;;17.00;99.90;;;;;;5066725;28;20047;-82
2023/06/20 02:30:42;;;;;;;13.32;11.00;;;17.10;99.90;;;;;;5048534;28;20507;-81
2023/06/20 02:33:10;;;;;;;13.70;11.07;;;17.00;99.90;;;;;;5065251;28;20422;-81
2023/06/20 02:35:37;;;;;;;15.20;11.52;;;17.00;99.90;;;;;;5047377;28;20052;-82
2023/06/20 02:38:04;;;;;;;12.38;11.02;;;17.00;99.90;;;;;;5066237;28;20396;-82
2023/06/20 02:40:36;;;;;;;12.85;11.30;;;16.80;99.90;;;;;;5067268;28;20048;-82
2023/06/20 02:43:02;;;;;;;12.85;11.18;;;17.00;99.90;;;;;;5067348;28;20055;-83
2023/06/20 02:45:28;;;;;;;12.80;11.48;;;17.20;99.90;;;;;;5066130;28;20040;-82
2023/06/20 02:48:19;;;;;;;12.77;11.45;;;16.90;99.90;;;;;;5066673;28;20640;-83
2023/06/20 02:51:09;;;;;;;17.80;11.40;;;17.00;99.90;;;;;;5065130;28;20055;-82
2023/06/20 02:54:02;;;;;;;14.15;11.18;;;16.90;99.90;;;;;;5066799;28;20227;-83
2023/06/20 02:56:31;;;;;;;13.75;12.35;;;16.90;99.90;;;;;;5066194;28;20052;-83
2023/06/20 02:59:00;;;;;;;16.75;12.10;;;16.90;99.90;;;;;;5065874;28;20048;-82
2023/06/20 03:01:29;;;;;;;13.35;11.38;;;16.90;99.90;;;;;;5062846;28;20049;-82
2023/06/20 03:03:56;;;;;;;14.32;12.63;;;17.00;99.90;;;;;;5064358;28;20037;-83
2023/06/20 03:06:27;;;;;;;12.80;11.52;;;16.90;99.90;;;;;;5068015;28;20463;-83
2023/06/20 03:08:55;;;;;;;15.35;11.77;;;17.00;99.90;;;;;;5047639;28;20044;-82
2023/06/20 03:11:21;;;;;;;15.10;12.30;;;17.30;99.90;;;;;;5060511;28;20449;-82
2023/06/20 03:13:47;;;;;;;13.95;11.73;;;16.90;99.90;;;;;;5068438;28;20044;-82
2023/06/20 03:16:13;;;;;;;15.27;11.70;;;17.00;99.90;;;;;;5066487;28;20424;-82
2023/06/20 03:18:39;;;;;;;15.68;11.63;;;17.30;99.90;;;;;;5068690;28;20047;-82
2023/06/20 03:21:05;;;;;;;12.93;10.77;;;17.00;99.90;;;;;;5046091;28;20416;-82
2023/06/20 03:23:31;;;;;;;13.38;11.95;;;17.20;99.90;;;;;;5068108;28;20044;-83
2023/06/20 03:25:58;;;;;;;13.15;11.20;;;17.10;99.90;;;;;;5065467;28;20040;-82
2023/06/20 03:28:24;;;;;;;14.73;10.75;;;17.40;99.90;;;;;;5065881;28;20076;-83
2023/06/20 03:30:53;;;;;;;13.70;11.23;;;17.00;99.90;;;;;;5066785;28;20570;-82
2023/06/20 03:33:19;;;;;;;12.85;11.02;;;17.00;99.90;;;;;;5048079;28;20040;-83
2023/06/20 03:35:44;;;;;;;13.50;10.75;;;17.00;99.90;;;;;;5063713;28;20051;-82
2023/06/20 03:38:12;;;;;;;13.68;11.00;;;17.00;99.90;;;;;;5065461;28;20120;-83
2023/06/20 03:40:37;;;;;;;14.25;10.50;;;17.00;99.90;;;;;;5064255;28;20151;-83
2023/06/20 03:43:03;;;;;;;13.20;11.15;;;17.10;99.90;;;;;;5058865;28;20467;-82
2023/06/20 03:45:28;;;;;;;16.38;11.25;;;17.30;99.90;;;;;;5063831;28;20049;-82
2023/06/20 03:47:54;;;;;;;14.48;10.30;;;17.10;99.90;;;;;;5065932;28;20053;-84
2023/06/20 03:50:20;;;;;;;11.65;10.45;;;17.10;99.90;;;;;;5064832;28;20063;-82
2023/06/20 03:52:45;;;;;;;13.70;11.13;;;17.10;99.90;;;;;;5047927;28;20488;-82
2023/06/20 03:55:12;;;;;;;14.20;10.35;;;17.10;99.90;;;;;;5065791;28;20132;-83
2023/06/20 03:57:38;;;;;;;13.40;11.63;;;17.20;99.90;;;;;;5064734;28;20044;-83
2023/06/20 04:00:12;;;;;;;13.43;10.73;;;17.20;99.90;;;;;;5045044;28;20033;-82
2023/06/20 04:02:41;;;;;;;11.85;10.65;;;17.20;99.90;;;;;;5057203;28;20055;-82
2023/06/20 04:05:10;;;;;;;13.70;10.32;;;17.20;99.90;;;;;;5066531;28;20050;-82
2023/06/20 04:07:36;;;;;;;11.38;10.13;;;17.40;99.90;;;;;;5063459;28;20052;-83
2023/06/20 04:10:01;;;;;;;13.63;10.77;;;17.20;99.90;;;;;;5065734;28;20037;-83
2023/06/20 04:12:27;;;;;;;11.63;9.38;;;17.20;99.90;;;;;;5064582;28;20045;-83
2023/06/20 04:14:53;;;;;;;13.90;11.23;;;17.30;99.90;;;;;;5067818;28;20044;-83
2023/06/20 04:17:19;;;;;;;13.40;10.70;;;17.30;99.90;;;;;;5068316;28;20052;-83
2023/06/20 04:19:45;;;;;;;12.73;10.85;;;17.30;99.90;;;;;;5069084;28;20054;-83
2023/06/20 04:22:12;;;;;;;13.32;10.73;;;17.30;99.90;;;;;;5048281;28;20440;-83
2023/06/20 04:24:38;;;;;;;12.90;10.55;;;17.30;99.90;;;;;;5047518;28;20131;-83
2023/06/20 04:27:06;;;;;;;12.68;10.48;;;17.40;99.90;;;;;;5066468;28;20049;-83
2023/06/20 04:29:32;;;;;;;14.45;10.77;;;17.40;99.90;;;;;;5068204;28;20051;-82
2023/06/20 04:31:57;;;;;;;13.25;10.98;;;17.40;99.90;;;;;;5067563;28;20488;-83
2023/06/20 04:34:23;;;;;;;15.65;11.48;;;17.40;99.90;;;;;;5069482;28;20051;-83
2023/06/20 04:36:52;;;;;;;16.70;11.35;;;17.50;99.90;;;;;;5068950;28;20142;-82
2023/06/20 04:39:18;;;;;;;13.35;11.57;;;17.50;99.90;;;;;;5070038;28;20131;-81
2023/06/20 04:41:44;;;;;;;15.05;10.85;;;17.60;99.90;;;;;;5066353;28;20128;-82
2023/06/20 04:44:09;;;;;;;12.15;10.25;;;17.60;99.90;;;;;;5079941;28;20132;-82
2023/06/20 04:46:35;;;;;;;12.30;10.98;;;17.70;99.90;;;;;;5066821;28;20177;-83
2023/06/20 04:49:01;;;;;;;15.00;11.48;;;17.90;99.90;;;;;;5066198;28;20112;-82
2023/06/20 04:51:27;;;;;;;13.00;10.95;;;18.20;99.90;;;;;;5075295;28;20051;-82
2023/06/20 04:53:53;;;;;;;11.63;10.38;;;17.90;99.90;;;;;;5069393;28;20138;-82
2023/06/20 04:56:19;;;;;;;12.85;9.82;;;18.00;99.90;;;;;;5065510;28;20044;-82
2023/06/20 04:58:46;;;;;;;11.32;10.13;;;18.10;99.90;;;;;;5066294;28;20047;-82
2023/06/20 05:01:14;;;;;;;13.30;10.90;;;18.10;99.90;;;;;;5046483;28;20044;-81
2023/06/20 05:03:42;;;;;;;13.90;10.70;;;18.30;99.90;;;;;;5040893;28;20056;-83
2023/06/20 05:06:08;;;;;;;11.20;10.00;;;18.50;99.90;;;;;;5061346;28;20044;-82
2023/06/20 05:08:33;;;;;;;12.00;10.30;;;18.20;99.90;;;;;;5056643;28;20048;-82
2023/06/20 05:10:59;;;;;;;11.70;10.50;;;18.70;99.90;;;;;;5068313;28;20408;-82
2023/06/20 05:13:25;;;;;;;11.70;9.88;;;18.50;99.90;;;;;;5065717;28;20101;-82
2023/06/20 05:15:50;;;;;;;13.23;10.68;;;18.80;99.90;;;;;;5065741;28;20141;-82
2023/06/20 05:18:16;;;;;;;10.85;9.68;;;18.60;99.90;;;;;;5067091;28;20043;-81
2023/06/20 05:20:42;;;;;;;11.73;10.30;;;18.60;99.90;;;;;;5063153;28;20500;-81
2023/06/20 05:23:08;;;;;;;11.88;10.50;;;18.60;99.90;;;;;;5065418;28;20191;-82
2023/06/20 05:25:34;;;;;;;13.55;10.35;;;18.70;99.90;;;;;;5068556;28;20531;-82
2023/06/20 05:28:00;;;;;;;12.00;10.10;;;18.80;99.90;;;;;;5065610;28;20055;-84
2023/06/20 05:30:25;;;;;;;10.20;9.13;;;18.90;99.90;;;;;;5065706;28;20037;-82
2023/06/20 05:32:52;;;;;;;12.02;9.80;;;19.00;99.90;;;;;;5061563;28;20041;-83
2023/06/20 05:35:17;;;;;;;12.02;10.00;;;19.10;99.90;;;;;;5066982;28;20037;-82
2023/06/20 05:37:46;;;;;;;11.70;10.50;;;19.20;99.90;;;;;;5067799;28;20476;-82
2023/06/20 05:40:15;;;;;;;11.48;10.23;;;19.20;99.90;;;;;;5050837;28;20066;-82
2023/06/20 05:42:40;;;;;;;11.68;10.27;;;19.20;99.90;;;;;;5050821;28;20480;-82
2023/06/20 05:45:06;;;;;;;11.57;10.38;;;19.50;99.90;;;;;;5049085;28;20079;-82
2023/06/20 05:47:32;;;;;;;12.00;10.02;;;19.40;99.90;;;;;;5050786;28;20138;-83
2023/06/20 05:49:59;;;;;;;12.38;10.55;;;19.60;99.90;;;;;;5067376;28;20098;-82
2023/06/20 05:52:25;;;;;;;10.85;9.73;;;19.70;99.90;;;;;;5068682;28;20059;-82
2023/06/20 05:54:53;;;;;;;11.38;10.00;;;19.80;99.90;;;;;;5068603;28;20048;-82
2023/06/20 05:57:20;;;;;;;12.93;10.70;;;19.50;99.90;;;;;;5047814;28;20040;-82
2023/06/20 05:59:45;;;;;;;12.90;10.18;;;19.50;99.90;;;;;;5049004;28;20048;-82
2023/06/20 06:02:12;;;;;;;11.27;10.05;;;19.50;99.90;;;;;;5065277;28;20536;-83
2023/06/20 06:04:37;;;;;;;12.48;9.45;;;19.80;99.90;;;;;;5067848;28;20056;-82
2023/06/20 06:07:07;;;;;;;10.90;9.80;;;19.60;99.90;;;;;;5066813;28;20044;-81
2023/06/20 06:09:33;;;;;;;12.38;9.73;;;19.60;99.90;;;;;;5068248;28;20084;-82
2023/06/20 06:11:58;;;;;;;12.13;10.27;;;19.70;99.90;;;;;;5065837;28;20522;-83
2023/06/20 06:14:24;;;;;;;15.05;9.85;;;19.70;99.90;;;;;;5065908;28;20221;-82
2023/06/20 06:16:50;;;;;;;14.43;9.52;;;19.80;99.90;;;;;;5049706;28;20094;-83
2023/06/20 06:19:15;;;;;;;13.25;9.90;;;19.80;99.90;;;;;;5066051;28;20144;-83
2023/06/20 06:21:41;;;;;;;13.10;10.27;;;19.90;99.90;;;;;;5047756;28;20044;-85
2023/06/20 06:24:08;;;;;;;11.73;10.32;;;20.00;99.90;;;;;;5046638;28;20036;-84
2023/06/20 06:26:35;;;;;;;10.23;9.20;;;20.20;99.90;;;;;;5046768;28;20083;-82
2023/06/20 06:29:01;;;;;;;12.43;9.98;;;20.40;99.90;;;;;;5047090;28;20057;-84
2023/06/20 06:31:31;;;;;;;14.18;10.23;;;20.60;99.90;;;;;;5064497;28;20071;-83
2023/06/20 06:33:57;;;;;;;12.30;9.48;;;20.80;99.90;;;;;;5065784;28;20523;-82
2023/06/20 06:36:31;;;;;;;10.95;9.80;;;21.20;99.90;;;;;;5066669;28;20091;-82
2023/06/20 06:38:57;;;;;;;10.95;9.85;;;21.10;99.90;;;;;;5064659;28;20052;-84
2023/06/20 06:41:23;;;;;;;11.02;9.70;;;21.10;99.90;;;;;;5065993;28;20167;-83
2023/06/20 06:43:49;;;;;;;10.73;9.63;;;21.30;99.90;;;;;;5062096;28;20127;-85
2023/06/20 06:46:14;;;;;;;10.48;9.50;;;21.40;99.90;;;;;;5066132;28;20045;-83
2023/06/20 06:48:40;;;;;;;11.27;9.63;;;21.40;99.90;;;;;;5065454;28;20480;-83
2023/06/20 06:51:06;;;;;;;11.70;9.68;;;21.80;99.90;;;;;;5048505;28;20549;-81
2023/06/20 06:53:32;;;;;;;11.55;10.23;;;21.60;99.90;;;;;;5065765;28;20467;-83
2023/06/20 06:55:58;;;;;;;11.68;10.48;;;21.60;99.90;;;;;;5048463;28;20041;-83
2023/06/20 06:58:23;;;;;;;12.90;11.38;;;21.60;99.90;;;;;;5066553;28;20067;-82
2023/06/20 07:00:49;;;;;;;11.48;10.27;;;21.60;99.90;;;;;;5065907;28;20047;-81
2023/06/20 07:03:15;;;;;;;10.90;9.80;;;21.50;99.90;;;;;;5064964;28;20041;-81
2023/06/20 07:05:40;;;;;;;10.95;9.85;;;21.50;99.90;;;;;;5047177;28;20044;-81
2023/06/20 07:08:06;;;;;;;10.90;9.80;;;21.50;99.90;;;;;;5064370;28;20080;-82
2023/06/20 07:10:32;;;;;;;12.40;10.65;;;21.40;99.90;;;;;;5063961;28;20045;-82
2023/06/20 07:12:57;;;;;;;14.77;10.50;;;21.50;99.90;;;;;;5065839;28;20051;-81
2023/06/20 07:15:23;;;;;;;12.05;10.88;;;21.30;99.90;;;;;;5064707;28;20458;-82
2023/06/20 07:17:49;;;;;;;12.90;10.07;;;21.40;99.90;;;;;;5048066;28;20076;-82
2023/06/20 07:20:16;;;;;;;11.90;10.80;;;21.40;99.90;;;;;;5065751;28;20482;-82
2023/06/20 07:22:41;;;;;;;12.27;10.25;;;21.40;99.90;;;;;;5049671;28;20040;-81
2023/06/20 07:25:10;;;;;;;13.38;10.55;;;21.40;99.90;;;;;;5048687;28;20048;-81
2023/06/20 07:27:35;;;;;;;12.52;10.63;;;21.40;99.90;;;;;;5049497;28;20048;-81
2023/06/20 07:30:01;;;;;;;15.60;10.90;;;21.30;99.90;;;;;;5065661;28;20054;-80
2023/06/20 07:32:27;;;;;;;12.05;10.73;;;21.40;99.90;;;;;;5065886;28;20128;-81
2023/06/20 07:34:52;;;;;;;14.68;10.52;;;21.30;99.90;;;;;;5066726;28;20091;-82
2023/06/20 07:37:18;;;;;;;12.18;10.75;;;21.40;99.90;;;;;;5067585;28;20037;-82
2023/06/20 07:39:46;;;;;;;13.70;10.70;;;21.40;99.90;;;;;;5066989;28;20036;-81
2023/06/20 07:42:12;;;;;;;12.77;10.43;;;21.20;99.90;;;;;;5065897;28;20550;-82
2023/06/20 07:44:38;;;;;;;12.60;9.95;;;21.40;99.90;;;;;;5067652;28;20072;-82
2023/06/20 07:47:04;;;;;;;12.85;11.43;;;21.50;99.90;;;;;;5069727;28;20479;-82
2023/06/20 07:49:30;;;;;;;12.63;11.32;;;21.40;99.90;;;;;;5069114;28;20048;-80
2023/06/20 07:51:55;;;;;;;14.60;11.65;;;21.40;99.90;;;;;;5069665;28;20416;-81
2023/06/20 07:54:21;;;;;;;12.57;11.38;;;21.30;99.90;;;;;;5069174;28;20123;-81
2023/06/20 07:56:47;;;;;;;12.48;11.27;;;21.40;99.90;;;;;;5052884;28;20041;-81
2023/06/20 07:59:13;;;;;;;12.68;11.40;;;21.30;99.90;;;;;;5069265;28;20049;-81
2023/06/20 08:01:38;;;;;;;13.20;11.90;;;21.20;99.90;;;;;;5069371;28;20425;-81
2023/06/20 08:04:04;;;;;;;12.63;11.32;;;21.20;99.90;;;;;;5052357;28;20069;-81
2023/06/20 08:06:29;;;;;;;12.27;11.10;;;21.30;99.90;;;;;;5052842;28;20758;-81
2023/06/20 08:08:55;;;;;;;13.38;11.27;;;21.30;99.90;;;;;;5067732;28;20048;-82
2023/06/20 08:11:24;;;;;;;11.98;10.77;;;21.40;99.90;;;;;;5052234;28;20041;-81
2023/06/20 08:13:50;;;;;;;15.48;11.52;;;21.40;99.90;;;;;;5069114;28;20079;-82
2023/06/20 08:16:17;;;;;;;13.48;12.07;;;21.30;99.90;;;;;;5069073;28;20040;-82
2023/06/20 08:18:43;;;;;;;12.57;11.20;;;21.40;99.90;;;;;;5068904;28;20052;-82
2023/06/20 08:21:08;;;;;;;12.10;10.90;;;21.40;99.90;;;;;;5085802;28;20044;-82
2023/06/20 08:23:34;;;;;;;11.85;10.75;;;21.40;99.90;;;;;;5068217;28;20451;-82
2023/06/20 08:26:00;;;;;;;11.93;10.82;;;21.50;99.90;;;;;;5068740;28;20075;-81
2023/06/20 08:28:26;;;;;;;12.60;11.38;;;21.60;99.90;;;;;;5052130;28;20043;-82
2023/06/20 08:30:52;;;;;;;12.68;11.43;;;21.60;99.90;;;;;;5069058;28;20273;-82
2023/06/20 08:33:21;;;;;;;12.00;10.80;;;21.80;99.90;;;;;;5069202;28;20041;-82
2023/06/20 08:35:47;;;;;;;12.70;11.50;;;21.80;99.90;;;;;;5051363;28;20045;-82
2023/06/20 08:38:13;;;;;;;13.05;11.82;;;22.00;99.90;;;;;;5068758;28;20055;-82
2023/06/20 08:40:39;;;;;;;11.70;10.60;;;22.00;99.90;;;;;;5052079;28;20053;-82
2023/06/20 08:43:05;;;;;;;12.00;10.90;;;22.20;99.90;;;;;;5068498;28;20044;-82
2023/06/20 08:45:31;;;;;;;11.32;10.23;;;22.60;99.90;;;;;;5067813;28;20048;-82
2023/06/20 08:47:59;;;;;;;11.20;10.10;;;22.50;99.90;;;;;;5067809;28;20412;-81
2023/06/20 08:50:26;;;;;;;11.45;10.35;;;22.70;99.90;;;;;;5085111;28;20093;-81
2023/06/20 08:52:54;;;;;;;12.32;10.40;;;22.80;99.90;;;;;;5068409;28;20101;-81
2023/06/20 08:55:20;;;;;;;11.70;10.27;;;22.80;99.90;;;;;;5051361;28;20037;-81
2023/06/20 08:57:46;;;;;;;10.60;9.60;;;22.80;99.90;;;;;;5067832;28;20052;-82
2023/06/20 09:00:21;;;;;;;11.00;9.90;;;22.90;99.90;;;;;;5051284;28;20564;-81
2023/06/20 09:02:48;;;;;;;9.93;8.93;;;23.00;99.90;;;;;;5068040;28;20416;-82
2023/06/20 09:05:14;;;;;;;9.68;8.63;;;23.20;99.90;;;;;;5051325;28;20072;-81
2023/06/20 09:07:41;;;;;;;9.63;8.68;;;23.40;99.90;;;;;;5068468;28;20044;-82
2023/06/20 09:10:08;;;;;;;9.18;8.30;;;23.40;99.90;;;;;;5084731;28;20139;-82
2023/06/20 09:13:00;;;;;;;9.38;8.48;;;23.70;99.90;;;;;;5069426;28;20044;-81
2023/06/20 09:15:27;;;;;;;8.95;8.05;;;24.00;99.90;;;;;;5046929;28;20087;-81
2023/06/20 09:17:54;;;;;;;8.18;7.38;;;24.10;99.90;;;;;;5031444;28;20048;-82
2023/06/20 09:20:25;;;;;;;7.40;6.70;;;24.30;99.90;;;;;;5030850;28;20045;-81
2023/06/20 09:22:51;;;;;;;8.00;7.22;;;24.60;99.90;;;;;;5048066;28;20045;-81
2023/06/20 09:25:27;;;;;;;7.40;6.70;;;24.70;99.90;;;;;;5064568;28;20052;-82
2023/06/20 09:27:54;;;;;;;8.60;7.80;;;24.90;99.90;;;;;;5067620;28;20052;-82
2023/06/20 09:30:20;;;;;;;7.90;7.30;;;25.00;99.90;;;;;;5067710;28;20040;-82
2023/06/20 09:32:46;;;;;;;8.85;8.05;;;25.10;99.90;;;;;;5067561;28;20454;-82
2023/06/20 09:35:14;;;;;;;8.90;7.97;;;25.30;99.90;;;;;;5066405;28;20049;-81
2023/06/20 09:37:41;;;;;;;8.75;7.95;;;25.70;99.90;;;;;;5067956;28;20048;-81
2023/06/20 09:40:12;;;;;;;7.85;7.05;;;25.90;99.90;;;;;;5068187;28;20045;-81
2023/06/20 09:42:42;;;;;;;8.88;8.02;;;26.00;99.90;;;;;;5050749;28;20074;-81
2023/06/20 09:45:09;;;;;;;8.13;7.30;;;26.40;99.90;;;;;;5084035;28;20084;-81
2023/06/20 09:47:36;;;;;;;9.10;8.30;;;26.40;99.30;;;;;;5050153;28;20164;-81
2023/06/20 09:50:08;;;;;;;9.25;8.40;;;26.50;98.90;;;;;;5049732;28;20105;-80
2023/06/20 09:52:43;;;;;;;8.95;8.15;;;26.50;97.60;;;;;;5067529;28;20074;-81
2023/06/20 09:55:14;;;;;;;8.95;8.05;;;26.60;97.10;;;;;;5066937;28;20044;-80
2023/06/20 09:57:57;;;;;;;11.88;7.60;;;26.60;97.40;;;;;;5066660;28;20055;-81
2023/06/20 10:00:26;;;;;;;8.43;7.72;;;26.70;97.50;;;;;;5067439;28;20092;-81
2023/06/20 10:02:53;;;;;;;9.00;7.88;;;26.80;97.30;;;;;;5067400;28;20521;-81
2023/06/20 10:05:20;;;;;;;8.63;7.93;;;26.90;97.00;;;;;;5050011;28;20044;-81
2023/06/20 10:07:48;;;;;;;8.15;7.45;;;26.90;95.90;;;;;;5049405;28;20048;-81
2023/06/20 10:10:16;;;;;;;8.30;7.63;;;26.90;95.70;;;;;;5065534;28;20119;-81
2023/06/20 10:12:43;;;;;;;8.10;7.30;;;27.00;95.10;;;;;;5066625;28;20045;-81
2023/06/20 10:15:10;;;;;;;8.00;7.20;;;27.00;94.80;;;;;;5066297;28;20117;-81
2023/06/20 10:17:41;;;;;;;8.30;7.47;;;27.10;94.90;;;;;;5068450;28;20056;-82
2023/06/20 10:20:08;;;;;;;7.97;7.18;;;27.20;94.30;;;;;;5067177;28;20079;-81
2023/06/20 10:22:37;;;;;;;7.63;6.93;;;27.20;94.20;;;;;;5048298;28;20044;-81
2023/06/20 10:25:12;;;;;;;7.50;6.80;;;27.30;94.10;;;;;;5046114;28;20058;-82
2023/06/20 10:27:43;;;;;;;7.72;6.93;;;27.40;92.40;;;;;;5047035;28;20045;-81
2023/06/20 10:30:12;;;;;;;7.60;6.90;;;27.40;92.60;;;;;;5046683;28;20480;-81
2023/06/20 10:33:10;;;;;;;8.02;7.22;;;27.40;93.00;;;;;;5063394;28;20063;-81
2023/06/20 10:35:52;;;;;;;8.35;7.55;;;27.60;92.50;;;;;;5065173;28;20060;-81
2023/06/20 10:38:18;;;;;;;7.72;7.03;;;27.60;91.60;;;;;;5048609;28;20036;-83
2023/06/20 10:40:45;;;;;;;7.40;6.70;;;27.70;92.40;;;;;;5053567;28;20049;-82
2023/06/20 10:43:22;;;;;;;7.95;6.97;;;27.80;92.60;;;;;;5047762;28;20062;-82
2023/06/20 10:45:53;;;;;;;7.88;7.28;;;28.10;91.30;;;;;;5081745;28;20451;-82
2023/06/20 10:48:20;;;;;;;7.30;6.60;;;28.00;91.50;;;;;;5050148;28;20159;-84
2023/06/20 10:50:46;;;;;;;6.90;6.30;;;28.00;91.70;;;;;;5065870;28;20411;-83
2023/06/20 10:53:14;;;;;;;7.25;6.53;;;28.00;91.00;;;;;;5066874;28;21025;-81
2023/06/20 10:55:39;;;;;;;6.30;5.80;;;28.10;90.30;;;;;;5050413;28;20040;-83
2023/06/20 10:58:05;;;;;;;5.85;5.45;;;28.20;90.00;;;;;;5064830;28;20052;-83
2023/06/20 11:00:30;;;;;;;6.30;5.80;;;28.40;89.40;;;;;;5050028;28;20041;-82
2023/06/20 11:02:56;;;;;;;5.85;5.35;;;28.50;87.70;;;;;;5066904;28;20037;-82
2023/06/20 11:05:27;;;;;;;6.38;5.78;;;28.40;85.90;;;;;;5064959;28;20036;-82
2023/06/20 11:07:54;;;;;;;5.78;5.38;;;28.30;84.10;;;;;;5041983;28;20090;-83
2023/06/20 11:10:33;;;;;;;6.85;6.13;;;28.30;85.10;;;;;;5067072;28;20033;-82
2023/06/20 11:13:01;;;;;;;6.90;6.30;;;28.30;87.10;;;;;;5068500;28;20044;-82
2023/06/20 11:15:34;;;;;;;6.72;6.10;;;28.20;86.30;;;;;;5065285;28;20045;-82
2023/06/20 11:18:02;;;;;;;6.72;6.13;;;28.20;86.10;;;;;;5064312;28;20051;-83
2023/06/20 11:20:28;;;;;;;6.47;5.88;;;28.30;87.50;;;;;;5061023;28;20076;-83
2023/06/20 11:22:55;;;;;;;8.90;6.50;;;28.70;87.40;;;;;;5051451;28;20118;-83
2023/06/20 11:25:28;;;;;;;7.47;6.78;;;28.70;86.40;;;;;;5059981;28;20422;-83
2023/06/20 11:27:55;;;;;;;6.57;5.97;;;28.60;83.80;;;;;;5053759;28;20036;-82
2023/06/20 11:30:28;;;;;;;6.63;5.93;;;28.60;83.40;;;;;;5052892;28;20063;-82
2023/06/20 11:33:08;;;;;;;6.30;5.80;;;28.50;83.30;;;;;;5069656;28;20089;-82
2023/06/20 11:35:53;;;;;;;5.82;5.22;;;28.50;81.20;;;;;;5070606;28;20531;-82
2023/06/20 11:38:30;;;;;;;5.80;5.30;;;28.40;79.60;;;;;;5048251;28;20139;-83
2023/06/20 11:41:06;;;;;;;5.35;4.95;;;28.30;80.90;;;;;;5049572;28;20048;-83
2023/06/20 11:43:38;;;;;;;5.90;5.35;;;28.30;80.50;;;;;;5048671;28;20531;-83
2023/06/20 11:46:04;;;;;;;6.10;5.50;;;28.40;80.90;;;;;;5070513;28;20044;-83
2023/06/20 11:48:30;;;;;;;7.82;5.25;;;28.60;81.40;;;;;;5069635;28;20105;-83
2023/06/20 11:51:04;;;;;;;6.20;5.70;;;28.70;81.80;;;;;;5066645;28;20529;-84
2023/06/20 11:53:37;;;;;;;6.40;5.90;;;28.80;81.60;;;;;;5054328;28;20504;-82
2023/06/20 11:56:04;;;;;;;6.20;5.60;;;29.00;80.20;;;;;;5052691;28;20048;-82
2023/06/20 11:58:39;;;;;;;6.82;6.28;;;28.90;79.20;;;;;;5069194;28;20135;-82
2023/06/20 12:01:10;;;;;;;7.32;5.82;;;28.90;77.40;;;;;;5068907;28;20109;-82
2023/06/20 12:03:37;;;;;;;;;;;28.80;78.00;;;;;;5070497;28;20052;-81
2023/06/20 12:06:03;;;;;;;6.25;5.65;;;28.60;78.00;;;;;;5067594;28;20355;-82
2023/06/20 12:08:35;;;;;;;6.18;5.30;;;28.60;79.20;;;;;;5069285;28;20059;-82
2023/06/20 12:11:04;;;;;;;6.65;5.88;;;28.60;80.30;;;;;;5068883;28;20357;-84
2023/06/20 12:13:32;;;;;;;5.95;5.45;;;28.90;78.60;;;;;;5068654;28;20442;-82
2023/06/20 12:15:57;;;;;;;6.03;5.53;;;28.90;78.60;;;;;;5052172;28;20049;-83
2023/06/20 12:18:23;;;;;;;6.43;5.82;;;29.00;78.00;;;;;;5070400;28;20052;-82
2023/06/20 12:20:49;;;;;;;6.03;5.50;;;29.10;78.10;;;;;;5052341;28;20083;-83
2023/06/20 12:23:14;;;;;;;6.22;5.65;;;29.20;78.20;;;;;;5069110;28;20055;-82
2023/06/20 12:25:43;;;;;;;6.38;5.72;;;29.30;78.50;;;;;;5068395;28;20055;-81
2023/06/20 12:28:08;;;;;;;6.88;5.72;;;29.50;77.70;;;;;;5069361;28;20101;-82
2023/06/20 12:30:34;;;;;;;7.30;5.97;;;29.50;77.10;;;;;;5067512;28;20122;-82
2023/06/20 12:33:00;;;;;;;6.22;5.72;;;29.40;76.50;;;;;;5069441;28;20044;-81
2023/06/20 12:35:26;;;;;;;6.05;5.55;;;29.50;76.90;;;;;;5068588;28;20456;-84
2023/06/20 12:37:52;;;;;;;6.28;5.57;;;29.50;77.20;;;;;;5069043;28;20044;-82
2023/06/20 12:40:17;;;;;;;5.95;5.45;;;29.60;75.90;;;;;;5069024;28;20107;-82